createdAt,value
2018-11-21T00:00:12.353Z,71.81
2018-11-21T00:02:40.685Z,71.83
2018-11-21T00:05:09.053Z,71.75
2018-11-21T00:07:37.900Z,71.61
2018-11-21T00:10:09.072Z,71.78
2018-11-21T00:12:38.041Z,71.73
2018-11-21T00:15:08.497Z,71.83
2018-11-21T00:17:36.870Z,71.97
2018-11-21T00:20:06.420Z,72.04
2018-11-21T00:22:35.072Z,72.16
2018-11-21T00:25:03.446Z,72.21
2018-11-21T00:27:31.800Z,72.32
2018-11-21T00:30:00.184Z,72.44
2018-11-21T00:32:28.763Z,72.50
2018-11-21T00:34:57.191Z,72.58
2018-11-21T00:37:26.161Z,72.81
2018-11-21T00:39:54.828Z,72.79
2018-11-21T00:42:23.200Z,72.93
2018-11-21T00:44:51.546Z,73.03
2018-11-21T00:47:19.912Z,73.20
2018-11-21T00:49:48.238Z,73.27
2018-11-21T00:52:16.605Z,73.48
2018-11-21T00:54:44.948Z,73.72
2018-11-21T00:57:13.302Z,73.84
2018-11-21T00:59:41.947Z,74.05
2018-11-21T01:02:10.313Z,74.21
2018-11-21T01:04:38.656Z,74.38
2018-11-21T01:07:07.033Z,74.57
2018-11-21T01:09:35.395Z,74.69
2018-11-21T01:12:03.728Z,74.83
2018-11-21T01:14:32.088Z,74.86
2018-11-21T01:17:00.425Z,74.83
2018-11-21T01:19:28.792Z,74.96
2018-11-21T01:21:57.133Z,74.99
2018-11-21T01:24:25.496Z,74.97
2018-11-21T01:26:53.834Z,75.13
2018-11-21T01:29:22.213Z,75.19
2018-11-21T01:31:50.548Z,75.08
2018-11-21T01:34:18.907Z,75.12
2018-11-21T01:36:47.267Z,75.08
2018-11-21T01:39:15.624Z,75.04
2018-11-21T01:41:43.970Z,75.00
2018-11-21T01:44:12.376Z,75.06
2018-11-21T01:46:40.712Z,75.08
2018-11-21T01:49:09.048Z,75.01
2018-11-21T01:51:37.408Z,75.00
2018-11-21T01:54:06.025Z,74.87
2018-11-21T01:56:34.382Z,74.88
2018-11-21T01:59:02.751Z,74.81
2018-11-21T02:01:31.138Z,74.83
2018-11-21T02:03:59.485Z,74.83
2018-11-21T02:06:27.880Z,74.87
2018-11-21T02:08:56.232Z,74.82
2018-11-21T02:11:24.599Z,74.83
2018-11-21T02:13:52.954Z,74.80
2018-11-21T02:16:21.327Z,74.80
2018-11-21T02:18:49.672Z,74.75
2018-11-21T02:21:18.024Z,74.86
2018-11-21T02:23:46.431Z,74.79
2018-11-21T02:26:14.800Z,74.83
2018-11-21T02:28:43.356Z,74.83
2018-11-21T02:31:11.817Z,74.84
2018-11-21T02:33:40.184Z,74.79
2018-11-21T02:36:08.534Z,74.73
2018-11-21T02:38:36.914Z,74.82
2018-11-21T02:41:05.271Z,74.80
2018-11-21T02:43:33.657Z,74.79
2018-11-21T02:46:02.086Z,74.73
2018-11-21T02:48:30.461Z,74.79
2018-11-21T02:50:58.820Z,74.87
2018-11-21T02:53:27.182Z,74.78
2018-11-21T02:55:55.559Z,74.76
2018-11-21T02:58:24.298Z,74.78
2018-11-21T03:00:52.669Z,74.86
2018-11-21T03:03:21.020Z,74.80
2018-11-21T03:05:49.403Z,74.69
2018-11-21T03:08:17.754Z,74.65
2018-11-21T03:10:46.136Z,74.70
2018-11-21T03:13:14.470Z,74.67
2018-11-21T03:15:42.840Z,74.61
2018-11-21T03:18:11.215Z,74.61
2018-11-21T03:20:39.639Z,74.64
2018-11-21T03:23:07.981Z,74.60
2018-11-21T03:25:36.334Z,74.55
2018-11-21T03:28:04.819Z,74.63
2018-11-21T03:30:33.170Z,74.67
2018-11-21T03:33:01.547Z,74.60
2018-11-21T03:35:29.932Z,74.56
2018-11-21T03:37:58.297Z,74.62
2018-11-21T03:40:26.641Z,74.62
2018-11-21T03:42:55.028Z,74.68
2018-11-21T03:45:23.369Z,74.66
2018-11-21T03:47:51.760Z,74.53
2018-11-21T03:50:20.106Z,74.54
2018-11-21T03:52:48.481Z,74.54
2018-11-21T03:55:16.816Z,74.43
2018-11-21T03:57:45.198Z,74.42
2018-11-21T04:00:14.203Z,74.32
2018-11-21T04:02:42.818Z,74.31
2018-11-21T04:05:11.373Z,74.38
2018-11-21T04:07:39.741Z,74.35
2018-11-21T04:10:10.776Z,74.24
2018-11-21T04:12:39.259Z,74.32
2018-11-21T04:15:08.817Z,74.22
2018-11-21T04:17:37.205Z,74.14
2018-11-21T04:20:06.526Z,74.23
2018-11-21T04:22:34.919Z,74.10
2018-11-21T04:25:03.271Z,74.08
2018-11-21T04:27:31.644Z,74.09
2018-11-21T04:30:00.094Z,74.02
2018-11-21T04:32:28.401Z,74.06
2018-11-21T04:34:56.751Z,74.01
2018-11-21T04:37:25.140Z,74.09
2018-11-21T04:39:53.491Z,74.09
2018-11-21T04:42:21.888Z,74.15
2018-11-21T04:44:50.245Z,74.03
2018-11-21T04:47:18.623Z,74.08
2018-11-21T04:49:46.967Z,74.09
2018-11-21T04:52:15.303Z,74.03
2018-11-21T04:54:43.676Z,74.04
2018-11-21T04:57:12.016Z,74.02
2018-11-21T04:59:40.372Z,73.97
2018-11-21T05:02:08.705Z,73.98
2018-11-21T05:04:37.075Z,73.81
2018-11-21T05:07:05.444Z,73.84
2018-11-21T05:09:33.816Z,73.97
2018-11-21T05:12:02.332Z,73.91
2018-11-21T05:14:30.696Z,73.86
2018-11-21T05:16:59.030Z,73.85
2018-11-21T05:19:27.397Z,73.89
2018-11-21T05:21:55.733Z,73.99
2018-11-21T05:24:24.136Z,73.94
2018-11-21T05:26:52.483Z,73.89
2018-11-21T05:29:20.898Z,73.92
2018-11-21T05:31:49.352Z,73.90
2018-11-21T05:34:17.728Z,73.99
2018-11-21T05:36:46.080Z,73.96
2018-11-21T05:39:14.451Z,73.90
2018-11-21T05:41:42.821Z,73.96
2018-11-21T05:44:11.385Z,73.94
2018-11-21T05:46:39.762Z,73.88
2018-11-21T05:49:08.234Z,73.80
2018-11-21T05:51:36.608Z,73.89
2018-11-21T05:54:05.136Z,73.92
2018-11-21T05:56:33.506Z,74.00
2018-11-21T05:59:01.854Z,74.00
2018-11-21T06:01:30.229Z,74.06
2018-11-21T06:03:58.574Z,74.06
2018-11-21T06:06:26.942Z,74.14
2018-11-21T06:08:55.295Z,74.13
2018-11-21T06:11:23.670Z,74.19
2018-11-21T06:13:52.019Z,74.35
2018-11-21T06:16:20.366Z,74.37
2018-11-21T06:18:48.930Z,74.43
2018-11-21T06:21:17.275Z,74.43
2018-11-21T06:23:45.854Z,74.47
2018-11-21T06:26:14.194Z,74.54
2018-11-21T06:28:42.568Z,74.53
2018-11-21T06:31:10.920Z,74.54
2018-11-21T06:33:39.397Z,74.67
2018-11-21T06:36:07.748Z,74.76
2018-11-21T06:38:36.125Z,74.75
2018-11-21T06:41:04.553Z,74.75
2018-11-21T06:43:32.927Z,74.71
2018-11-21T06:46:01.371Z,74.79
2018-11-21T06:48:29.745Z,74.78
2018-11-21T06:50:58.128Z,74.92
2018-11-21T06:53:26.545Z,74.94
2018-11-21T06:55:54.885Z,75.05
2018-11-21T06:58:23.258Z,75.07
2018-11-21T07:00:51.611Z,75.21
2018-11-21T07:03:19.959Z,75.14
2018-11-21T07:05:48.328Z,75.23
2018-11-21T07:08:16.677Z,75.07
2018-11-21T07:10:45.058Z,75.13
2018-11-21T07:13:13.402Z,75.05
2018-11-21T07:15:41.767Z,74.98
2018-11-21T07:18:10.123Z,75.02
2018-11-21T07:20:38.495Z,75.06
2018-11-21T07:23:06.848Z,75.01
2018-11-21T07:25:35.219Z,75.05
2018-11-21T07:28:03.573Z,74.96
2018-11-21T07:30:31.942Z,75.00
2018-11-21T07:33:00.293Z,75.07
2018-11-21T07:35:28.658Z,75.05
2018-11-21T07:37:57.000Z,75.06
2018-11-21T07:40:25.398Z,75.11
2018-11-21T07:42:53.768Z,75.19
2018-11-21T07:45:22.155Z,75.11
2018-11-21T07:47:50.508Z,75.07
2018-11-21T07:50:20.395Z,74.81
2018-11-21T07:52:48.763Z,74.81
2018-11-21T07:55:17.129Z,74.85
2018-11-21T07:57:47.375Z,74.65
2018-11-21T08:01:19.511Z,74.51
2018-11-21T08:03:52.314Z,74.52
2018-11-21T08:06:29.113Z,74.41
2018-11-21T08:09:32.006Z,74.26
2018-11-21T08:12:18.464Z,74.24
2018-11-21T08:15:08.720Z,74.35
2018-11-21T08:17:54.763Z,74.30
2018-11-21T08:20:40.972Z,74.24
2018-11-21T08:23:34.789Z,74.07
2018-11-21T08:26:21.215Z,74.21
2018-11-21T08:28:49.581Z,74.03
2018-11-21T08:31:17.922Z,74.09
2018-11-21T08:33:46.289Z,74.14
2018-11-21T08:36:14.628Z,74.14
2018-11-21T08:38:43.396Z,74.18
2018-11-21T08:41:11.773Z,74.00
2018-11-21T08:43:40.153Z,73.99
2018-11-21T08:46:10.062Z,74.04
2018-11-21T08:48:38.409Z,74.00
2018-11-21T08:51:06.826Z,73.93
2018-11-21T08:53:35.280Z,73.93
2018-11-21T08:56:03.677Z,73.79
2018-11-21T08:58:32.048Z,73.80
2018-11-21T09:01:00.420Z,73.67
2018-11-21T09:03:28.766Z,73.85
2018-11-21T09:05:57.141Z,73.55
2018-11-21T09:08:25.854Z,73.44
2018-11-21T09:10:54.222Z,73.43
2018-11-21T09:13:22.576Z,73.45
2018-11-21T09:15:53.543Z,73.20
2018-11-21T09:18:21.802Z,73.01
2018-11-21T09:20:50.168Z,72.94
2018-11-21T09:23:18.511Z,73.01
2018-11-21T09:25:46.876Z,72.50
2018-11-21T09:28:15.224Z,72.11
2018-11-21T09:30:43.594Z,71.87
2018-11-21T09:33:11.951Z,71.57
2018-11-21T09:35:40.319Z,71.52
2018-11-21T09:38:08.661Z,71.38
2018-11-21T09:40:37.029Z,71.66
2018-11-21T09:43:05.769Z,71.44
2018-11-21T09:45:34.137Z,71.04
2018-11-21T09:48:02.482Z,71.03
2018-11-21T09:50:32.135Z,70.86
2018-11-21T09:53:00.468Z,70.59
2018-11-21T09:55:28.854Z,70.55
2018-11-21T09:57:57.205Z,70.33
2018-11-21T10:01:02.050Z,70.29
2018-11-21T10:03:32.098Z,70.16
2018-11-21T10:06:09.474Z,69.99
2018-11-21T10:08:59.883Z,69.95
2018-11-21T10:11:28.748Z,69.85
2018-11-21T10:13:57.100Z,69.86
2018-11-21T10:16:25.511Z,69.91
2018-11-21T10:18:55.453Z,69.84
2018-11-21T10:21:25.308Z,70.08
2018-11-21T10:23:53.676Z,69.95
2018-11-21T10:26:22.216Z,69.92
2018-11-21T10:28:51.550Z,70.02
2018-11-21T10:31:19.905Z,70.13
2018-11-21T10:33:48.410Z,70.06
2018-11-21T10:36:16.765Z,70.01
2018-11-21T10:38:45.142Z,69.94
2018-11-21T10:41:13.485Z,70.12
2018-11-21T10:43:41.859Z,70.29
2018-11-21T10:46:10.204Z,70.40
2018-11-21T10:48:38.576Z,70.59
2018-11-21T10:51:06.921Z,70.62
2018-11-21T10:53:35.296Z,70.62
2018-11-21T10:56:03.638Z,70.66
2018-11-21T10:58:32.010Z,70.70
2018-11-21T11:01:18.314Z,70.79
2018-11-21T11:03:55.183Z,70.87
2018-11-21T11:06:36.027Z,71.06
2018-11-21T11:09:31.883Z,71.18
2018-11-21T11:12:17.925Z,71.29
2018-11-21T11:15:17.332Z,71.22
2018-11-21T11:18:07.338Z,71.38
2018-11-21T11:20:53.636Z,71.39
2018-11-21T11:23:40.017Z,71.26
2018-11-21T11:26:26.286Z,71.31
2018-11-21T11:29:12.132Z,71.35
2018-11-21T11:31:51.284Z,71.43
2018-11-21T11:34:37.558Z,71.58
2018-11-21T11:37:23.804Z,71.63
2018-11-21T11:40:10.220Z,71.53
2018-11-21T11:43:03.938Z,71.47
2018-11-21T11:45:52.428Z,71.32
2018-11-21T11:48:36.844Z,71.35
2018-11-21T11:51:27.213Z,71.43
2018-11-21T11:54:14.696Z,71.47
2018-11-21T11:57:01.138Z,71.64
2018-11-21T11:59:48.628Z,71.65
2018-11-21T12:02:30.598Z,71.96
2018-11-21T12:05:21.198Z,72.30
2018-11-21T12:08:05.656Z,72.71
2018-11-21T12:10:52.018Z,72.76
2018-11-21T12:13:45.466Z,72.70
2018-11-21T12:16:51.282Z,72.82
2018-11-21T12:19:34.329Z,72.98
2018-11-21T12:22:08.209Z,72.95
2018-11-21T12:24:54.577Z,72.88
2018-11-21T12:27:43.473Z,72.89
2018-11-21T12:30:29.683Z,72.74
2018-11-21T12:33:15.985Z,72.96
2018-11-21T12:36:09.795Z,73.13
2018-11-21T12:38:56.165Z,73.29
2018-11-21T12:41:53.533Z,73.37
2018-11-21T12:44:43.199Z,73.42
2018-11-21T12:47:33.409Z,73.37
2018-11-21T12:50:19.521Z,73.18
2018-11-21T12:53:06.186Z,73.12
2018-11-21T12:56:02.581Z,73.08
2018-11-21T12:58:40.937Z,73.15
2018-11-21T13:01:26.745Z,73.23
2018-11-21T13:04:14.765Z,73.39
2018-11-21T13:07:02.244Z,73.64
2018-11-21T13:09:56.646Z,73.62
2018-11-21T13:12:52.259Z,73.84
2018-11-21T13:15:45.907Z,73.82
2018-11-21T13:18:32.391Z,73.87
2018-11-21T13:21:17.390Z,73.93
2018-11-21T13:24:07.569Z,73.99
2018-11-21T13:26:58.981Z,74.02
2018-11-21T13:29:45.353Z,73.90
2018-11-21T13:32:32.504Z,74.07
2018-11-21T13:35:19.961Z,74.02
2018-11-21T13:38:02.037Z,74.16
2018-11-21T13:40:57.726Z,74.16
2018-11-21T13:44:00.353Z,74.17
2018-11-21T13:46:44.149Z,74.16
2018-11-21T13:49:31.629Z,74.08
2018-11-21T13:52:10.205Z,74.17
2018-11-21T13:54:48.640Z,74.16
2018-11-21T13:57:18.732Z,74.22
2018-11-21T13:59:47.098Z,74.22
2018-11-21T14:02:15.445Z,74.39
2018-11-21T14:04:43.814Z,74.41
2018-11-21T14:07:12.159Z,74.18
2018-11-21T14:09:40.533Z,74.15
2018-11-21T14:12:09.218Z,74.17
2018-11-21T14:14:37.592Z,74.33
2018-11-21T14:17:06.417Z,74.34
2018-11-21T14:19:34.778Z,74.41
2018-11-21T14:22:03.121Z,74.28
2018-11-21T14:24:31.726Z,74.20
2018-11-21T14:27:00.238Z,73.95
2018-11-21T14:29:28.592Z,73.93
2018-11-21T14:31:56.962Z,73.86
2018-11-21T14:34:25.349Z,73.88
2018-11-21T14:36:53.721Z,74.27
2018-11-21T14:39:22.084Z,74.31
2018-11-21T14:41:50.502Z,74.30
2018-11-21T14:44:18.855Z,74.32
2018-11-21T14:46:49.259Z,74.14
2018-11-21T14:49:17.619Z,74.13
2018-11-21T14:51:46.004Z,74.21
2018-11-21T14:54:14.353Z,74.36
2018-11-21T14:56:42.737Z,74.32
2018-11-21T14:59:11.143Z,74.30
2018-11-21T15:01:39.516Z,74.44
2018-11-21T15:04:07.871Z,74.49
2018-11-21T15:06:36.707Z,74.69
2018-11-21T15:09:11.160Z,74.55
2018-11-21T15:11:40.594Z,74.45
2018-11-21T15:14:08.944Z,74.32
2018-11-21T15:16:37.301Z,74.41
2018-11-21T15:19:05.862Z,74.53
2018-11-21T15:21:34.229Z,74.54
2018-11-21T15:24:02.936Z,74.64
2018-11-21T15:26:31.975Z,74.78
2018-11-21T15:29:01.585Z,74.88
2018-11-21T15:31:29.927Z,74.94
2018-11-21T15:33:58.308Z,75.02
2018-11-21T15:36:26.647Z,75.09
2018-11-21T15:38:55.014Z,75.10
2018-11-21T15:41:23.365Z,75.11
2018-11-21T15:43:51.744Z,75.02
2018-11-21T15:46:20.096Z,75.24
2018-11-21T15:48:48.549Z,75.31
2018-11-21T15:51:16.893Z,75.32
2018-11-21T15:53:45.269Z,75.20
2018-11-21T15:56:13.632Z,75.12
2018-11-21T15:58:41.971Z,75.12
2018-11-21T16:01:10.341Z,75.36
2018-11-21T16:03:38.683Z,75.36
2018-11-21T16:06:07.056Z,75.37
2018-11-21T16:08:35.408Z,75.39
2018-11-21T16:11:03.811Z,75.41
2018-11-21T16:13:32.153Z,75.41
2018-11-21T16:16:00.519Z,75.44
2018-11-21T16:18:29.073Z,75.31
2018-11-21T16:20:57.434Z,75.33
2018-11-21T16:23:25.780Z,75.29
2018-11-21T16:25:56.380Z,75.38
2018-11-21T16:28:24.721Z,75.47
2018-11-21T16:30:53.089Z,75.45
2018-11-21T16:33:21.440Z,75.54
2018-11-21T16:35:49.872Z,75.70
2018-11-21T16:38:18.301Z,75.79
2018-11-21T16:40:46.648Z,75.94
2018-11-21T16:43:15.012Z,76.04
2018-11-21T16:45:45.457Z,76.02
2018-11-21T16:48:13.828Z,76.08
2018-11-21T16:50:42.167Z,76.13
2018-11-21T16:53:10.615Z,76.14
2018-11-21T16:55:38.977Z,76.21
2018-11-21T16:58:07.343Z,76.26
2018-11-21T17:00:35.685Z,76.21
2018-11-21T17:03:04.233Z,76.18
2018-11-21T17:05:32.573Z,76.18
2018-11-21T17:08:00.909Z,76.22
2018-11-21T17:10:30.825Z,76.34
2018-11-21T17:12:59.173Z,76.34
2018-11-21T17:15:29.107Z,76.36
2018-11-21T17:17:57.446Z,76.30
2018-11-21T17:20:30.569Z,76.28
2018-11-21T17:22:59.774Z,76.23
2018-11-21T17:25:32.987Z,76.29
2018-11-21T17:28:01.325Z,76.34
2018-11-21T17:30:29.691Z,76.34
2018-11-21T17:32:58.026Z,76.30
2018-11-21T17:35:26.587Z,76.49
2018-11-21T17:37:56.176Z,76.46
2018-11-21T17:40:27.339Z,76.55
2018-11-21T17:42:56.110Z,76.66
2018-11-21T17:45:24.475Z,76.69
2018-11-21T17:47:52.851Z,76.80
2018-11-21T17:50:22.698Z,76.91
2018-11-21T17:52:52.599Z,76.94
2018-11-21T17:55:22.943Z,76.97
2018-11-21T17:57:51.285Z,76.95
2018-11-21T18:00:21.129Z,77.05
2018-11-21T18:02:49.477Z,77.08
2018-11-21T18:05:19.301Z,77.02
2018-11-21T18:07:48.010Z,76.93
2018-11-21T18:10:17.926Z,76.98
2018-11-21T18:12:46.821Z,76.90
2018-11-21T18:15:15.744Z,76.94
2018-11-21T18:17:45.332Z,77.04
2018-11-21T18:20:14.401Z,76.94
2018-11-21T18:22:43.518Z,77.02
2018-11-21T18:25:14.326Z,77.11
2018-11-21T18:27:43.227Z,77.10
2018-11-21T18:30:13.845Z,77.08
2018-11-21T18:32:43.174Z,76.97
2018-11-21T18:35:13.681Z,77.04
2018-11-21T18:37:42.504Z,77.00
2018-11-21T18:40:13.886Z,76.91
2018-11-21T18:42:42.330Z,77.04
2018-11-21T18:45:14.470Z,77.12
2018-11-21T18:47:43.590Z,77.08
2018-11-21T18:50:13.272Z,77.08
2018-11-21T18:52:44.446Z,77.19
2018-11-21T18:55:15.254Z,77.12
2018-11-21T18:58:30.488Z,77.15
2018-11-21T19:00:58.870Z,77.28
2018-11-21T19:03:27.233Z,77.09
2018-11-21T19:05:55.579Z,77.01
2018-11-21T19:08:23.964Z,77.01
2018-11-21T19:10:52.746Z,76.93
2018-11-21T19:13:21.673Z,76.71
2018-11-21T19:15:50.010Z,76.58
2018-11-21T19:18:18.527Z,76.55
2018-11-21T19:20:46.966Z,76.49
2018-11-21T19:23:15.345Z,76.51
2018-11-21T19:25:43.704Z,76.42
2018-11-21T19:28:12.057Z,76.19
2018-11-21T19:30:40.681Z,75.85
2018-11-21T19:33:09.028Z,75.98
2018-11-21T19:35:37.409Z,75.91
2018-11-21T19:38:05.874Z,75.96
2018-11-21T19:40:34.236Z,76.14
2018-11-21T19:43:02.580Z,76.13
2018-11-21T19:45:30.942Z,76.16
2018-11-21T19:47:59.288Z,76.20
2018-11-21T19:50:27.677Z,76.16
2018-11-21T19:52:56.049Z,75.98
2018-11-21T19:55:26.161Z,75.88
2018-11-21T19:57:54.612Z,75.79
2018-11-21T20:00:27.236Z,75.64
2018-11-21T20:02:55.593Z,75.61
2018-11-21T20:05:23.966Z,75.61
2018-11-21T20:07:52.647Z,75.45
2018-11-21T20:10:21.674Z,75.34
2018-11-21T20:12:50.019Z,75.43
2018-11-21T20:15:20.167Z,75.32
2018-11-21T20:17:53.803Z,75.25
2018-11-21T20:20:22.664Z,75.39
2018-11-21T20:22:53.378Z,75.52
2018-11-21T20:25:23.410Z,75.43
2018-11-21T20:27:51.815Z,75.58
2018-11-21T20:30:24.469Z,75.62
